createdAt,value
2018-08-14T00:00:14.207Z,816.56
2018-08-14T00:01:14.223Z,816.56
2018-08-14T00:02:14.238Z,816.58
2018-08-14T00:03:14.257Z,816.59
2018-08-14T00:04:14.276Z,816.61
2018-08-14T00:05:14.291Z,816.63
2018-08-14T00:06:14.318Z,816.65
2018-08-14T00:07:14.328Z,816.61
2018-08-14T00:08:14.349Z,816.62
2018-08-14T00:09:14.362Z,816.60
2018-08-14T00:10:14.382Z,816.59
2018-08-14T00:11:14.403Z,816.66
2018-08-14T00:12:14.418Z,816.65
2018-08-14T00:13:14.435Z,816.65
2018-08-14T00:14:14.455Z,816.61
2018-08-14T00:15:14.470Z,816.62
2018-08-14T00:16:14.493Z,816.68
2018-08-14T00:17:14.506Z,816.63
2018-08-14T00:18:14.524Z,816.67
2018-08-14T00:19:14.543Z,816.64
2018-08-14T00:20:14.559Z,816.63
2018-08-14T00:21:14.577Z,816.62
2018-08-14T00:22:14.594Z,816.64
2018-08-14T00:23:14.614Z,816.62
2018-08-14T00:24:14.631Z,816.64
2018-08-14T00:25:14.649Z,816.63
2018-08-14T00:26:14.666Z,816.62
2018-08-14T00:27:14.683Z,816.62
2018-08-14T00:28:14.703Z,816.63
2018-08-14T00:29:14.718Z,816.65
2018-08-14T00:30:14.737Z,816.61
2018-08-14T00:31:14.757Z,816.63
2018-08-14T00:32:14.775Z,816.59
2018-08-14T00:33:14.791Z,816.63
2018-08-14T00:34:14.808Z,816.62
2018-08-14T00:35:14.827Z,816.64
2018-08-14T00:36:14.844Z,816.65
2018-08-14T00:37:14.862Z,816.69
2018-08-14T00:38:14.882Z,816.66
2018-08-14T00:39:14.896Z,816.62
2018-08-14T00:40:14.916Z,816.60
2018-08-14T00:41:14.934Z,816.64
2018-08-14T00:42:14.950Z,816.55
2018-08-14T00:43:14.967Z,816.62
2018-08-14T00:44:14.986Z,816.60
2018-08-14T00:45:15.005Z,816.59
2018-08-14T00:46:15.021Z,816.56
2018-08-14T00:47:15.039Z,816.60
2018-08-14T00:48:15.058Z,816.58
2018-08-14T00:49:15.075Z,816.60
2018-08-14T00:50:15.093Z,816.57
2018-08-14T00:51:15.111Z,816.62
2018-08-14T00:52:15.129Z,816.54
2018-08-14T00:53:15.147Z,816.55
2018-08-14T00:54:15.164Z,816.53
2018-08-14T00:55:15.182Z,816.53
2018-08-14T00:56:15.198Z,816.50
2018-08-14T00:57:15.217Z,816.49
2018-08-14T00:58:15.233Z,816.51
2018-08-14T00:59:15.252Z,816.47
2018-08-14T01:00:15.271Z,816.45
2018-08-14T01:01:15.286Z,816.46
2018-08-14T01:02:15.305Z,816.43
2018-08-14T01:03:15.321Z,816.43
2018-08-14T01:04:15.344Z,816.45
2018-08-14T01:05:15.357Z,816.47
2018-08-14T01:06:15.376Z,816.45
2018-08-14T01:07:15.394Z,816.44
2018-08-14T01:08:15.411Z,816.43
2018-08-14T01:09:15.429Z,816.43
2018-08-14T01:10:15.446Z,816.41
2018-08-14T01:11:15.462Z,816.42
2018-08-14T01:12:15.481Z,816.44
2018-08-14T01:13:15.498Z,816.44
2018-08-14T01:14:15.517Z,816.42
2018-08-14T01:15:15.534Z,816.45
2018-08-14T01:16:15.553Z,816.50
2018-08-14T01:17:15.571Z,816.50
2018-08-14T01:18:15.593Z,816.49
2018-08-14T01:19:15.604Z,816.51
2018-08-14T01:20:15.634Z,816.50
2018-08-14T01:21:15.640Z,816.49
2018-08-14T01:22:15.658Z,816.50
2018-08-14T01:23:15.676Z,816.48
2018-08-14T01:24:15.695Z,816.53
2018-08-14T01:25:15.710Z,816.56
2018-08-14T01:26:15.728Z,816.50
2018-08-14T01:27:15.745Z,816.48
2018-08-14T01:28:15.764Z,816.49
2018-08-14T01:29:15.782Z,816.46
2018-08-14T01:30:15.799Z,816.46
2018-08-14T01:31:15.819Z,816.41
2018-08-14T01:32:15.836Z,816.40
2018-08-14T01:33:15.851Z,816.43
2018-08-14T01:34:15.873Z,816.50
2018-08-14T01:35:15.887Z,816.42
2018-08-14T01:36:15.903Z,816.41
2018-08-14T01:37:15.922Z,816.38
2018-08-14T01:38:15.941Z,816.35
2018-08-14T01:39:15.958Z,816.36
2018-08-14T01:40:15.975Z,816.35
2018-08-14T01:41:15.994Z,816.40
2018-08-14T01:42:16.012Z,816.41
2018-08-14T01:43:16.027Z,816.41
2018-08-14T01:44:16.046Z,816.41
2018-08-14T01:45:16.065Z,816.41
2018-08-14T01:46:16.081Z,816.38
2018-08-14T01:47:16.106Z,816.43
2018-08-14T01:48:16.120Z,816.42
2018-08-14T01:49:16.160Z,816.43
2018-08-14T01:50:16.151Z,816.39
2018-08-14T01:51:16.167Z,816.47
2018-08-14T01:52:16.185Z,816.41
2018-08-14T01:53:16.201Z,816.44
2018-08-14T01:54:16.222Z,816.44
2018-08-14T01:55:16.241Z,816.38
2018-08-14T01:56:16.259Z,816.38
2018-08-14T01:57:16.276Z,816.44
2018-08-14T01:58:16.289Z,816.44
2018-08-14T01:59:16.308Z,816.44
2018-08-14T02:00:16.326Z,816.43
2018-08-14T02:01:16.342Z,816.41
2018-08-14T02:02:16.361Z,816.35
2018-08-14T02:03:16.378Z,816.37
2018-08-14T02:04:16.394Z,816.35
2018-08-14T02:05:16.412Z,816.45
2018-08-14T02:06:16.429Z,816.45
2018-08-14T02:07:16.446Z,816.45
2018-08-14T02:08:16.463Z,816.46
2018-08-14T02:09:16.490Z,816.45
2018-08-14T02:10:16.499Z,816.48
2018-08-14T02:11:16.516Z,816.43
2018-08-14T02:12:16.536Z,816.43
2018-08-14T02:13:16.561Z,816.43
2018-08-14T02:14:16.567Z,816.46
2018-08-14T02:15:16.585Z,816.46
2018-08-14T02:16:16.606Z,816.46
2018-08-14T02:17:16.621Z,816.46
2018-08-14T02:18:16.638Z,816.42
2018-08-14T02:19:16.656Z,816.49
2018-08-14T02:20:16.673Z,816.50
2018-08-14T02:21:16.689Z,816.46
2018-08-14T02:22:16.708Z,816.48
2018-08-14T02:23:16.724Z,816.47
2018-08-14T02:24:16.743Z,816.50
2018-08-14T02:25:16.761Z,816.52
2018-08-14T02:26:16.777Z,816.50
2018-08-14T02:27:16.795Z,816.53
2018-08-14T02:28:16.815Z,816.51
2018-08-14T02:29:16.828Z,816.50
2018-08-14T02:30:16.848Z,816.46
2018-08-14T02:31:16.864Z,816.52
2018-08-14T02:32:16.882Z,816.53
2018-08-14T02:33:16.907Z,816.47
2018-08-14T02:34:16.918Z,816.50
2018-08-14T02:35:16.935Z,816.49
2018-08-14T02:36:16.951Z,816.52
2018-08-14T02:37:16.968Z,816.52
2018-08-14T02:38:16.990Z,816.48
2018-08-14T02:39:17.004Z,816.49
2018-08-14T02:40:17.037Z,816.48
2018-08-14T02:41:17.038Z,816.50
2018-08-14T02:42:17.055Z,816.46
2018-08-14T02:43:17.075Z,816.43
2018-08-14T02:44:17.092Z,816.44
2018-08-14T02:45:17.112Z,816.45
2018-08-14T02:46:17.132Z,816.50
2018-08-14T02:47:17.145Z,816.47
2018-08-14T02:48:17.164Z,816.45
2018-08-14T02:49:17.179Z,816.50
2018-08-14T02:50:17.199Z,816.47
2018-08-14T02:51:17.216Z,816.49
2018-08-14T02:52:17.231Z,816.51
2018-08-14T02:53:17.248Z,816.52
2018-08-14T02:54:17.269Z,816.50
2018-08-14T02:55:17.282Z,816.51
2018-08-14T02:56:17.302Z,816.51
2018-08-14T02:57:17.317Z,816.52
2018-08-14T02:58:17.335Z,816.48
2018-08-14T02:59:17.356Z,816.54
2018-08-14T03:00:17.369Z,816.53
2018-08-14T03:01:17.385Z,816.50
2018-08-14T03:02:17.402Z,816.52
2018-08-14T03:03:17.420Z,816.49
2018-08-14T03:04:17.438Z,816.53
2018-08-14T03:05:17.454Z,816.49
2018-08-14T03:06:17.472Z,816.52
2018-08-14T03:07:17.494Z,816.54
2018-08-14T03:08:17.553Z,816.52
2018-08-14T03:09:17.522Z,816.56
2018-08-14T03:10:17.537Z,816.55
2018-08-14T03:11:17.560Z,816.54
2018-08-14T03:12:17.574Z,816.55
2018-08-14T03:13:17.592Z,816.58
2018-08-14T03:14:17.608Z,816.53
2018-08-14T03:15:17.626Z,816.54
2018-08-14T03:16:17.643Z,816.55
2018-08-14T03:17:17.657Z,816.50
2018-08-14T03:18:17.676Z,816.53
2018-08-14T03:19:17.694Z,816.52
2018-08-14T03:20:17.712Z,816.50
2018-08-14T03:21:17.727Z,816.53
2018-08-14T03:22:17.745Z,816.55
2018-08-14T03:23:17.765Z,816.51
2018-08-14T03:24:17.779Z,816.55
2018-08-14T03:25:17.794Z,816.53
2018-08-14T03:26:17.811Z,816.55
2018-08-14T03:27:17.833Z,816.50
2018-08-14T03:28:17.849Z,816.51
2018-08-14T03:29:17.869Z,816.51
2018-08-14T03:30:17.883Z,816.53
2018-08-14T03:31:17.898Z,816.55
2018-08-14T03:32:17.930Z,816.49
2018-08-14T03:33:17.932Z,816.51
2018-08-14T03:34:17.948Z,816.51
2018-08-14T03:35:17.967Z,816.53
2018-08-14T03:36:17.981Z,816.50
2018-08-14T03:37:17.997Z,816.52
2018-08-14T03:38:18.015Z,816.58
2018-08-14T03:39:18.033Z,816.50
2018-08-14T03:40:18.049Z,816.53
2018-08-14T03:41:18.064Z,816.51
2018-08-14T03:42:18.081Z,816.56
2018-08-14T03:43:18.099Z,816.57
2018-08-14T03:44:18.116Z,816.57
2018-08-14T03:45:18.136Z,816.65
2018-08-14T03:46:18.151Z,816.64
2018-08-14T03:47:18.165Z,816.64
2018-08-14T03:48:18.183Z,816.62
2018-08-14T03:49:18.199Z,816.65
2018-08-14T03:50:18.214Z,816.62
2018-08-14T03:51:18.233Z,816.62
2018-08-14T03:52:18.250Z,816.62
2018-08-14T03:53:18.264Z,816.64
2018-08-14T03:54:18.281Z,816.68
2018-08-14T03:55:18.299Z,816.67
2018-08-14T03:56:18.315Z,816.69
2018-08-14T03:57:18.331Z,816.68
2018-08-14T03:58:18.347Z,816.68
2018-08-14T03:59:18.363Z,816.68
2018-08-14T04:00:18.384Z,816.69
2018-08-14T04:01:18.402Z,816.66
2018-08-14T04:02:18.416Z,816.69
2018-08-14T04:03:18.431Z,816.66
2018-08-14T04:04:18.449Z,816.65
2018-08-14T04:05:18.464Z,816.70
2018-08-14T04:06:18.481Z,816.67
2018-08-14T04:07:18.495Z,816.70
2018-08-14T04:08:18.514Z,816.68
2018-08-14T04:09:18.530Z,816.69
2018-08-14T04:10:18.545Z,816.67
2018-08-14T04:11:18.566Z,816.72
2018-08-14T04:12:18.579Z,816.67
2018-08-14T04:13:18.597Z,816.70
2018-08-14T04:14:18.613Z,816.66
2018-08-14T04:15:18.629Z,816.67
2018-08-14T04:16:18.648Z,816.71
2018-08-14T04:17:18.665Z,816.68
2018-08-14T04:18:18.679Z,816.66
2018-08-14T04:19:18.697Z,816.67
2018-08-14T04:20:18.714Z,816.63
2018-08-14T04:21:18.727Z,816.64
2018-08-14T04:22:18.745Z,816.67
2018-08-14T04:23:18.760Z,816.69
2018-08-14T04:24:18.778Z,816.69
2018-08-14T04:25:18.793Z,816.69
2018-08-14T04:26:18.810Z,816.76
2018-08-14T04:27:18.830Z,816.72
2018-08-14T04:28:18.845Z,816.73
2018-08-14T04:29:18.859Z,816.73
2018-08-14T04:30:18.878Z,816.74
2018-08-14T04:31:18.895Z,816.75
2018-08-14T04:32:18.911Z,816.78
2018-08-14T04:33:18.965Z,816.75
2018-08-14T04:34:18.943Z,816.77
2018-08-14T04:35:18.960Z,816.82
2018-08-14T04:36:18.976Z,816.83
2018-08-14T04:37:18.992Z,816.80
2018-08-14T04:38:19.009Z,816.83
2018-08-14T04:39:19.025Z,816.84
2018-08-14T04:40:19.042Z,816.83
2018-08-14T04:41:19.059Z,816.84
2018-08-14T04:42:19.074Z,816.86
2018-08-14T04:43:19.093Z,816.87
2018-08-14T04:44:19.117Z,816.88
2018-08-14T04:45:19.193Z,816.93
2018-08-14T04:46:19.144Z,816.94
2018-08-14T04:47:19.159Z,816.97
2018-08-14T04:48:19.181Z,816.93
2018-08-14T04:49:19.189Z,816.94
2018-08-14T04:50:19.207Z,816.97
2018-08-14T04:51:19.224Z,816.97
2018-08-14T04:52:19.243Z,817.01
2018-08-14T04:53:19.256Z,817.03
2018-08-14T04:54:19.274Z,817.01
2018-08-14T04:55:19.289Z,817.03
2018-08-14T04:56:19.309Z,817.00
2018-08-14T04:57:19.321Z,817.03
2018-08-14T04:58:19.340Z,817.10
2018-08-14T04:59:19.354Z,817.06
2018-08-14T05:00:19.371Z,817.06
2018-08-14T05:01:19.388Z,817.14
2018-08-14T05:02:19.443Z,817.13
2018-08-14T05:03:19.462Z,817.10
2018-08-14T05:04:19.439Z,817.15
2018-08-14T05:05:19.453Z,817.12
2018-08-14T05:06:19.472Z,817.17
2018-08-14T05:07:19.488Z,817.16
2018-08-14T05:08:19.503Z,817.20
2018-08-14T05:09:19.519Z,817.20
2018-08-14T05:10:19.537Z,817.20
2018-08-14T05:11:19.553Z,817.19
2018-08-14T05:12:19.640Z,817.19
2018-08-14T05:13:19.588Z,817.21
2018-08-14T05:14:19.603Z,817.16
2018-08-14T05:15:19.620Z,817.19
2018-08-14T05:16:19.635Z,817.19
2018-08-14T05:17:19.650Z,817.20
2018-08-14T05:18:19.668Z,817.20
2018-08-14T05:19:19.735Z,817.21
2018-08-14T05:20:19.761Z,817.27
2018-08-14T05:21:19.792Z,817.25
2018-08-14T05:22:19.771Z,817.25
2018-08-14T05:23:19.801Z,817.30
2018-08-14T05:24:19.809Z,817.30
2018-08-14T05:25:19.815Z,817.31
2018-08-14T05:26:19.851Z,817.31
2018-08-14T05:27:19.853Z,817.31
2018-08-14T05:28:19.894Z,817.26
2018-08-14T05:29:19.854Z,817.32
2018-08-14T05:30:19.894Z,817.23
2018-08-14T05:31:19.941Z,817.28
2018-08-14T05:32:19.931Z,817.27
2018-08-14T05:33:20.009Z,817.30
2018-08-14T05:34:19.997Z,817.31
2018-08-14T05:35:19.986Z,817.32
2018-08-14T05:36:20.025Z,817.33
2018-08-14T05:37:20.029Z,817.29
2018-08-14T05:38:19.998Z,817.32
2018-08-14T05:39:20.038Z,817.32
2018-08-14T05:40:20.072Z,817.30
2018-08-14T05:41:20.117Z,817.33
2018-08-14T05:42:20.116Z,817.33
2018-08-14T05:43:20.117Z,817.33
2018-08-14T05:44:20.143Z,817.32
2018-08-14T05:45:20.189Z,817.30
2018-08-14T05:46:20.200Z,817.29
2018-08-14T05:47:20.182Z,817.33
2018-08-14T05:48:20.212Z,817.33
2018-08-14T05:49:20.220Z,817.34
2018-08-14T05:50:20.261Z,817.36
2018-08-14T05:51:20.240Z,817.32
2018-08-14T05:52:20.285Z,817.34
2018-08-14T05:53:20.292Z,817.34
2018-08-14T05:54:20.267Z,817.36
2018-08-14T05:55:20.335Z,817.44
2018-08-14T05:56:20.301Z,817.43
2018-08-14T05:57:20.342Z,817.42
2018-08-14T05:58:20.347Z,817.47
2018-08-14T05:59:20.350Z,817.43
2018-08-14T06:00:20.415Z,817.41
2018-08-14T06:01:20.385Z,817.42
2018-08-14T06:02:20.437Z,817.39
2018-08-14T06:03:20.418Z,817.37
2018-08-14T06:04:20.434Z,817.38
2018-08-14T06:05:20.452Z,817.40
2018-08-14T06:06:20.469Z,817.41
2018-08-14T06:07:20.510Z,817.37
2018-08-14T06:08:20.502Z,817.39
2018-08-14T06:09:20.517Z,817.43
2018-08-14T06:10:20.554Z,817.42
2018-08-14T06:11:20.549Z,817.43
2018-08-14T06:12:20.630Z,817.39
2018-08-14T06:13:20.582Z,817.43
2018-08-14T06:14:20.598Z,817.47
2018-08-14T06:15:20.617Z,817.47
2018-08-14T06:16:20.665Z,817.50
2018-08-14T06:17:20.649Z,817.50
2018-08-14T06:18:20.665Z,817.53
2018-08-14T06:19:20.682Z,817.58
2018-08-14T06:20:20.698Z,817.54
2018-08-14T06:21:20.714Z,817.51
2018-08-14T06:22:20.729Z,817.52
2018-08-14T06:23:20.748Z,817.52
2018-08-14T06:24:20.836Z,817.52
2018-08-14T06:25:20.874Z,817.53
2018-08-14T06:26:20.820Z,817.53
2018-08-14T06:27:20.813Z,817.52
2018-08-14T06:28:20.873Z,817.53
2018-08-14T06:29:20.860Z,817.56
2018-08-14T06:30:20.937Z,817.50
2018-08-14T06:31:20.878Z,817.52
2018-08-14T06:32:20.895Z,817.55
2018-08-14T06:33:20.931Z,817.53
2018-08-14T06:34:20.958Z,817.54
2018-08-14T06:35:20.989Z,817.51
2018-08-14T06:36:20.962Z,817.53
2018-08-14T06:37:21.006Z,817.52
2018-08-14T06:38:20.991Z,817.48
2018-08-14T06:39:21.010Z,817.48
2018-08-14T06:40:21.028Z,817.50
2018-08-14T06:41:21.040Z,817.51
2018-08-14T06:42:21.056Z,817.51
2018-08-14T06:43:21.077Z,817.53
2018-08-14T06:44:21.091Z,817.55
2018-08-14T06:45:21.107Z,817.56
2018-08-14T06:46:21.124Z,817.54
2018-08-14T06:47:21.140Z,817.57
2018-08-14T06:48:21.156Z,817.53
2018-08-14T06:49:21.173Z,817.55
2018-08-14T06:50:21.193Z,817.55
2018-08-14T06:51:21.206Z,817.54
2018-08-14T06:52:21.223Z,817.57
2018-08-14T06:53:21.240Z,817.52
2018-08-14T06:54:21.254Z,817.50
2018-08-14T06:55:21.272Z,817.50
2018-08-14T06:56:21.288Z,817.51
2018-08-14T06:57:21.305Z,817.50
2018-08-14T06:58:21.329Z,817.53
2018-08-14T06:59:21.341Z,817.53
2018-08-14T07:00:21.360Z,817.51
2018-08-14T07:01:21.377Z,817.53
2018-08-14T07:02:21.391Z,817.59
2018-08-14T07:03:21.408Z,817.62
2018-08-14T07:04:21.423Z,817.65
2018-08-14T07:05:21.440Z,817.61
2018-08-14T07:06:21.456Z,817.64
2018-08-14T07:07:21.478Z,817.61
2018-08-14T07:08:21.497Z,817.63
2018-08-14T07:09:21.508Z,817.63
2018-08-14T07:10:21.525Z,817.62
2018-08-14T07:11:21.542Z,817.62
2018-08-14T07:12:21.622Z,817.61
2018-08-14T07:13:21.574Z,817.64
2018-08-14T07:14:21.591Z,817.68
2018-08-14T07:15:21.609Z,817.70
2018-08-14T07:16:21.630Z,817.67
2018-08-14T07:17:21.642Z,817.67
2018-08-14T07:18:21.659Z,817.70
2018-08-14T07:19:21.679Z,817.69
2018-08-14T07:20:21.692Z,817.64
2018-08-14T07:21:21.722Z,817.63
2018-08-14T07:22:21.801Z,817.63
2018-08-14T07:23:21.743Z,817.63
2018-08-14T07:24:21.780Z,817.62
2018-08-14T07:25:21.776Z,817.56
2018-08-14T07:26:21.793Z,817.62
2018-08-14T07:27:21.815Z,817.59
2018-08-14T07:28:21.889Z,817.68
2018-08-14T07:29:21.842Z,817.66
2018-08-14T07:30:21.860Z,817.65
2018-08-14T07:31:21.876Z,817.67
2018-08-14T07:32:21.894Z,817.72
2018-08-14T07:33:21.912Z,817.67
2018-08-14T07:34:21.929Z,817.68
2018-08-14T07:35:21.946Z,817.70
2018-08-14T07:36:21.962Z,817.63
2018-08-14T07:37:21.986Z,817.65
2018-08-14T07:38:21.994Z,817.68
2018-08-14T07:39:22.017Z,817.68
2018-08-14T07:40:22.030Z,817.72
2018-08-14T07:41:22.069Z,817.73
2018-08-14T07:42:22.060Z,817.72
2018-08-14T07:43:22.083Z,817.68
2018-08-14T07:44:22.096Z,817.66
2018-08-14T07:45:22.113Z,817.64
2018-08-14T07:46:22.128Z,817.65
2018-08-14T07:47:22.147Z,817.64
2018-08-14T07:48:22.163Z,817.68
2018-08-14T07:49:22.176Z,817.68
2018-08-14T07:50:22.199Z,817.68
2018-08-14T07:51:22.212Z,817.71
2018-08-14T07:52:22.231Z,817.73
2018-08-14T07:53:22.282Z,817.74
2018-08-14T07:54:22.263Z,817.74
2018-08-14T07:55:22.287Z,817.78
2018-08-14T07:56:22.296Z,817.78
2018-08-14T07:57:22.313Z,817.76
2018-08-14T07:58:22.330Z,817.78
2018-08-14T07:59:22.352Z,817.79
2018-08-14T08:00:22.365Z,817.79
2018-08-14T08:01:22.381Z,817.82
2018-08-14T08:02:22.404Z,817.82
2018-08-14T08:03:22.417Z,817.83
2018-08-14T08:04:22.433Z,817.84
2018-08-14T08:05:22.450Z,817.86
2018-08-14T08:06:22.476Z,817.86
2018-08-14T08:07:22.483Z,817.80
2018-08-14T08:08:22.500Z,817.84
2018-08-14T08:09:22.519Z,817.86
2018-08-14T08:10:22.554Z,817.86
2018-08-14T08:11:22.554Z,817.86
2018-08-14T08:12:22.571Z,817.85
2018-08-14T08:13:22.586Z,817.91
2018-08-14T08:14:22.602Z,817.91
2018-08-14T08:15:22.622Z,817.93
2018-08-14T08:16:22.639Z,817.94
2018-08-14T08:17:22.654Z,817.92
2018-08-14T08:18:22.692Z,817.98
2018-08-14T08:19:22.691Z,817.96
2018-08-14T08:20:22.708Z,817.95
2018-08-14T08:21:22.725Z,817.97
2018-08-14T08:22:22.742Z,817.96
2018-08-14T08:23:22.762Z,817.96
2018-08-14T08:24:22.778Z,817.97
2018-08-14T08:25:22.794Z,817.97
2018-08-14T08:26:22.813Z,817.97
2018-08-14T08:27:22.830Z,817.98
2018-08-14T08:28:22.848Z,817.99
2018-08-14T08:29:22.869Z,817.96
2018-08-14T08:30:22.885Z,817.93
2018-08-14T08:31:22.949Z,817.97
2018-08-14T08:32:22.916Z,817.92
2018-08-14T08:33:22.933Z,817.95
2018-08-14T08:34:23.027Z,817.97
2018-08-14T08:35:22.972Z,817.93
2018-08-14T08:36:22.989Z,817.93
2018-08-14T08:37:23.005Z,817.96
2018-08-14T08:38:23.019Z,817.93
2018-08-14T08:39:23.038Z,817.95
2018-08-14T08:40:23.060Z,817.97
2018-08-14T08:41:23.076Z,817.99
2018-08-14T08:42:23.095Z,818.02
2018-08-14T08:43:23.115Z,817.97
2018-08-14T08:44:23.128Z,817.98
2018-08-14T08:45:23.145Z,817.94
2018-08-14T08:46:23.169Z,817.96
2018-08-14T08:47:23.233Z,817.96
2018-08-14T08:48:23.203Z,817.98
2018-08-14T08:49:23.212Z,817.97
2018-08-14T08:50:23.231Z,817.97
2018-08-14T08:51:23.256Z,817.98
2018-08-14T08:52:23.269Z,817.97
2018-08-14T08:53:23.286Z,817.98
2018-08-14T08:54:23.303Z,817.99
2018-08-14T08:55:23.322Z,818.00
2018-08-14T08:56:23.340Z,817.99
2018-08-14T08:57:23.355Z,817.97
2018-08-14T08:58:23.420Z,818.00
2018-08-14T08:59:23.391Z,817.99
2018-08-14T09:00:23.410Z,817.98
2018-08-14T09:01:23.430Z,817.96
2018-08-14T09:02:23.447Z,817.98
2018-08-14T09:03:23.464Z,817.95
2018-08-14T09:04:23.480Z,817.98
2018-08-14T09:05:23.499Z,818.00
2018-08-14T09:06:23.519Z,818.02
2018-08-14T09:07:23.532Z,817.99
2018-08-14T09:08:23.553Z,818.04
2018-08-14T09:09:23.595Z,818.08
2018-08-14T09:10:23.589Z,818.08
2018-08-14T09:11:23.605Z,818.10
2018-08-14T09:12:23.624Z,818.11
2018-08-14T09:13:23.641Z,818.12
2018-08-14T09:14:23.659Z,818.09
2018-08-14T09:15:23.677Z,818.13
2018-08-14T09:16:23.694Z,818.11
2018-08-14T09:17:23.713Z,818.12
2018-08-14T09:18:23.731Z,818.14
2018-08-14T09:19:23.750Z,818.14
2018-08-14T09:20:23.770Z,818.13
2018-08-14T09:21:23.785Z,818.14
2018-08-14T09:22:23.851Z,818.16
2018-08-14T09:23:23.822Z,818.17
2018-08-14T09:24:23.842Z,818.16
2018-08-14T09:25:23.859Z,818.12
2018-08-14T09:26:23.876Z,818.12
2018-08-14T09:27:23.893Z,818.12
2018-08-14T09:28:23.913Z,818.13
2018-08-14T09:29:23.933Z,818.16
2018-08-14T09:30:23.949Z,818.19
2018-08-14T09:31:23.969Z,818.20
2018-08-14T09:32:23.986Z,818.19
2018-08-14T09:33:24.004Z,818.23
2018-08-14T09:34:24.025Z,818.20
2018-08-14T09:35:24.042Z,818.17
2018-08-14T09:36:24.061Z,818.12
2018-08-14T09:37:24.077Z,818.10
2018-08-14T09:38:24.095Z,818.14
2018-08-14T09:39:24.120Z,818.15
2018-08-14T09:40:24.137Z,818.12
2018-08-14T09:41:24.153Z,818.11
2018-08-14T09:42:24.170Z,818.13
2018-08-14T09:43:24.188Z,818.09
2018-08-14T09:44:24.206Z,818.13
2018-08-14T09:45:24.224Z,818.07
2018-08-14T09:46:24.244Z,818.11
2018-08-14T09:47:24.260Z,818.10
2018-08-14T09:48:24.281Z,818.15
2018-08-14T09:49:24.295Z,818.13
2018-08-14T09:50:24.316Z,818.11
2018-08-14T09:51:24.333Z,818.13
2018-08-14T09:52:24.353Z,818.10
2018-08-14T09:53:24.370Z,818.11
2018-08-14T09:54:24.434Z,818.13
2018-08-14T09:55:24.408Z,818.15
2018-08-14T09:56:24.427Z,818.16
2018-08-14T09:57:24.442Z,818.14
2018-08-14T09:58:24.465Z,818.14
2018-08-14T09:59:24.480Z,818.11
2018-08-14T10:00:24.500Z,818.10
2018-08-14T10:01:24.519Z,818.08
2018-08-14T10:02:24.543Z,818.10
2018-08-14T10:03:24.556Z,818.13
2018-08-14T10:04:24.577Z,818.13
2018-08-14T10:05:24.593Z,818.07
2018-08-14T10:06:24.617Z,818.13
2018-08-14T10:07:24.635Z,818.12
2018-08-14T10:08:24.651Z,818.11
2018-08-14T10:09:24.668Z,818.13
2018-08-14T10:10:24.686Z,818.14
2018-08-14T10:11:24.708Z,818.13
2018-08-14T10:12:24.728Z,818.14
2018-08-14T10:13:24.744Z,818.13
2018-08-14T10:14:24.763Z,818.15
2018-08-14T10:15:24.782Z,818.13
2018-08-14T10:16:24.801Z,818.06
2018-08-14T10:17:24.816Z,818.06
2018-08-14T10:18:24.837Z,818.08
2018-08-14T10:19:24.856Z,818.05
2018-08-14T10:20:24.875Z,818.08
2018-08-14T10:21:24.896Z,818.06
2018-08-14T10:22:24.915Z,818.06
2018-08-14T10:23:24.934Z,818.08
2018-08-14T10:24:24.954Z,818.08
2018-08-14T10:25:24.971Z,818.07
2018-08-14T10:26:24.992Z,818.08
2018-08-14T10:27:25.015Z,818.08
2018-08-14T10:28:25.063Z,818.12
2018-08-14T10:29:25.047Z,818.13
2018-08-14T10:30:25.071Z,818.07
2018-08-14T10:31:25.088Z,818.15
2018-08-14T10:32:25.108Z,818.10
2018-08-14T10:33:25.126Z,818.10
2018-08-14T10:34:25.168Z,818.13
2018-08-14T10:35:25.163Z,818.15
2018-08-14T10:36:25.181Z,818.13
2018-08-14T10:37:25.201Z,818.10
2018-08-14T10:38:25.219Z,818.14
2018-08-14T10:39:25.238Z,818.08
2018-08-14T10:40:25.258Z,818.10
2018-08-14T10:41:25.282Z,818.12
2018-08-14T10:42:25.299Z,818.14
2018-08-14T10:43:25.316Z,818.11
2018-08-14T10:44:25.337Z,818.07
2018-08-14T10:45:25.354Z,818.09
2018-08-14T10:46:25.417Z,818.08
2018-08-14T10:47:25.395Z,818.09
2018-08-14T10:48:25.415Z,818.08
2018-08-14T10:49:25.449Z,818.15
2018-08-14T10:50:25.451Z,818.15
2018-08-14T10:51:25.471Z,818.07
2018-08-14T10:52:25.490Z,818.14
2018-08-14T10:53:25.510Z,818.10
2018-08-14T10:54:25.531Z,818.09
2018-08-14T10:55:25.546Z,818.09
2018-08-14T10:56:25.568Z,818.10
2018-08-14T10:57:25.587Z,818.15
2018-08-14T10:58:25.605Z,818.10
2018-08-14T10:59:25.624Z,818.18
2018-08-14T11:00:25.643Z,818.17
2018-08-14T11:01:25.662Z,818.14
2018-08-14T11:02:25.682Z,818.17
2018-08-14T11:03:25.704Z,818.13
2018-08-14T11:04:25.774Z,818.17
2018-08-14T11:05:25.745Z,818.08
2018-08-14T11:06:25.766Z,818.11
2018-08-14T11:07:25.783Z,818.10
2018-08-14T11:08:25.801Z,818.10
2018-08-14T11:09:25.822Z,818.04
2018-08-14T11:10:25.842Z,818.08
2018-08-14T11:11:25.897Z,818.06
2018-08-14T11:12:25.881Z,818.05
2018-08-14T11:13:25.902Z,818.09
2018-08-14T11:14:25.920Z,818.15
2018-08-14T11:15:25.942Z,818.07
2018-08-14T11:16:26.059Z,818.06
2018-08-14T11:17:25.983Z,818.08
2018-08-14T11:18:26.000Z,818.02
2018-08-14T11:19:26.020Z,818.06
2018-08-14T11:20:26.038Z,818.11
2018-08-14T11:21:26.057Z,818.08
2018-08-14T11:22:26.078Z,818.07
2018-08-14T11:23:26.096Z,818.12
2018-08-14T11:24:26.119Z,818.06
2018-08-14T11:25:26.138Z,818.04
2018-08-14T11:26:26.159Z,818.11
2018-08-14T11:27:26.177Z,818.08
2018-08-14T11:28:26.196Z,818.15
2018-08-14T11:29:26.215Z,818.21
2018-08-14T11:30:26.238Z,818.11
2018-08-14T11:31:26.255Z,818.17
2018-08-14T11:32:26.331Z,818.18
2018-08-14T11:33:26.299Z,818.18
2018-08-14T11:34:26.315Z,818.15
2018-08-14T11:35:26.341Z,818.29
2018-08-14T11:36:26.357Z,818.35
2018-08-14T11:37:26.376Z,818.25
2018-08-14T11:38:26.395Z,818.32
2018-08-14T11:39:26.419Z,818.36
2018-08-14T11:40:26.443Z,818.37
2018-08-14T11:41:26.477Z,818.36
2018-08-14T11:42:26.478Z,818.41
2018-08-14T11:43:26.496Z,818.42
2018-08-14T11:44:26.520Z,818.43
2018-08-14T11:45:26.537Z,818.41
2018-08-14T11:46:26.558Z,818.43
2018-08-14T11:47:26.577Z,818.47
2018-08-14T11:48:26.599Z,818.49
2018-08-14T11:49:26.619Z,818.46
2018-08-14T11:50:26.638Z,818.50
2018-08-14T11:51:26.660Z,818.48
2018-08-14T11:52:26.684Z,818.52
2018-08-14T11:53:26.695Z,818.51
2018-08-14T11:54:26.720Z,818.50
2018-08-14T11:55:26.740Z,818.52
2018-08-14T11:56:26.758Z,818.53
2018-08-14T11:57:26.784Z,818.53
2018-08-14T11:58:26.797Z,818.52
2018-08-14T11:59:26.823Z,818.59
2018-08-14T12:00:26.838Z,818.57
2018-08-14T12:01:26.856Z,818.59
2018-08-14T12:02:26.877Z,818.58
2018-08-14T12:03:26.901Z,818.55
2018-08-14T12:04:26.916Z,818.50
2018-08-14T12:05:26.960Z,818.55
2018-08-14T12:06:26.962Z,818.55
2018-08-14T12:07:26.977Z,818.58
2018-08-14T12:08:26.999Z,818.57
2018-08-14T12:09:27.019Z,818.53
2018-08-14T12:10:27.042Z,818.54
2018-08-14T12:11:27.060Z,818.49
2018-08-14T12:12:27.080Z,818.52
2018-08-14T12:13:27.098Z,818.54
2018-08-14T12:14:27.122Z,818.55
2018-08-14T12:15:27.140Z,818.52
2018-08-14T12:16:27.161Z,818.51
2018-08-14T12:17:27.178Z,818.54
2018-08-14T12:18:27.232Z,818.53
2018-08-14T12:19:27.219Z,818.56
2018-08-14T12:20:27.238Z,818.55
2018-08-14T12:21:27.256Z,818.57
2018-08-14T12:22:27.276Z,818.57
2018-08-14T12:23:27.297Z,818.51
2018-08-14T12:24:27.318Z,818.51
2018-08-14T12:25:27.338Z,818.52
2018-08-14T12:26:27.356Z,818.49
2018-08-14T12:27:27.378Z,818.48
2018-08-14T12:28:27.396Z,818.52